createdAt,value
2023-01-18T00:01:27.958Z,10.97
2023-01-18T00:06:49.450Z,8.97
2023-01-18T00:12:10.600Z,8.20
2023-01-18T00:17:32.001Z,9.90
2023-01-18T00:22:53.977Z,10.43
2023-01-18T00:28:21.946Z,9.33
2023-01-18T00:33:47.730Z,9.13
2023-01-18T00:39:09.159Z,9.70
2023-01-18T00:44:30.413Z,8.57
2023-01-18T00:49:51.981Z,9.80
2023-01-18T00:55:15.038Z,8.87
2023-01-18T01:00:36.306Z,9.37
2023-01-18T01:06:16.379Z,8.20
2023-01-18T01:11:37.943Z,8.23
2023-01-18T01:17:17.660Z,8.57
2023-01-18T01:22:57.774Z,10.20
2023-01-18T01:28:19.905Z,8.93
2023-01-18T01:33:42.210Z,9.07
2023-01-18T01:39:03.553Z,8.60
2023-01-18T01:44:25.230Z,9.30
2023-01-18T01:49:50.729Z,9.23
2023-01-18T01:55:21.410Z,9.30
2023-01-18T02:00:43.228Z,9.50
2023-01-18T02:06:16.564Z,9.20
2023-01-18T02:11:38.558Z,9.20
2023-01-18T02:17:06.057Z,9.00
2023-01-18T02:22:48.549Z,9.53
2023-01-18T02:28:19.610Z,9.90
2023-01-18T02:33:48.626Z,11.07
2023-01-18T02:39:23.594Z,9.50
2023-01-18T02:45:06.159Z,8.40
2023-01-18T02:50:28.567Z,7.50
2023-01-18T02:57:24.314Z,7.30
2023-01-18T03:02:56.571Z,8.03
2023-01-18T03:08:29.928Z,7.47
2023-01-18T03:14:10.990Z,7.10
2023-01-18T03:20:05.894Z,7.23
2023-01-18T03:25:36.758Z,7.33
2023-01-18T03:31:21.383Z,7.27
2023-01-18T03:36:49.374Z,7.40
2023-01-18T03:42:19.805Z,8.00
2023-01-18T03:47:41.482Z,7.73
2023-01-18T03:53:09.854Z,7.50
2023-01-18T03:58:36.273Z,7.60
2023-01-18T04:03:57.531Z,7.80
2023-01-18T04:09:19.299Z,8.10
2023-01-18T04:14:40.870Z,8.90
2023-01-18T04:20:02.302Z,8.33
2023-01-18T04:25:23.845Z,8.53
2023-01-18T04:30:45.319Z,8.70
2023-01-18T04:36:07.258Z,8.43
2023-01-18T04:41:28.759Z,8.70
2023-01-18T04:46:51.168Z,8.67
2023-01-18T04:52:12.455Z,9.10
2023-01-18T04:57:34.256Z,9.40
2023-01-18T05:02:55.774Z,9.77
2023-01-18T05:08:17.954Z,9.83
2023-01-18T05:13:39.884Z,10.23
2023-01-18T05:19:01.428Z,9.47
2023-01-18T05:24:28.851Z,10.93
2023-01-18T05:29:51.613Z,10.07
2023-01-18T05:35:12.802Z,10.07
2023-01-18T05:40:34.031Z,10.50
2023-01-18T05:45:55.759Z,11.30
2023-01-18T05:51:17.002Z,10.70
2023-01-18T05:56:38.770Z,10.13
2023-01-18T06:02:00.151Z,10.60
2023-01-18T06:07:21.664Z,10.47
2023-01-18T06:12:44.152Z,12.20
2023-01-18T06:18:05.608Z,11.73
2023-01-18T06:23:27.354Z,11.93
2023-01-18T06:28:48.921Z,12.30
2023-01-18T06:34:10.152Z,12.63
2023-01-18T06:39:31.559Z,12.47
2023-01-18T06:44:52.869Z,12.37
2023-01-18T06:50:14.420Z,12.77
2023-01-18T06:55:35.917Z,12.77
2023-01-18T07:00:59.663Z,11.87
2023-01-18T07:06:21.744Z,12.60
2023-01-18T07:11:43.585Z,12.17
2023-01-18T07:17:04.970Z,11.77
2023-01-18T07:22:26.617Z,12.57
2023-01-18T07:27:49.265Z,11.97
2023-01-18T07:33:11.675Z,11.73
2023-01-18T07:38:33.990Z,10.43
2023-01-18T07:43:55.972Z,11.27
2023-01-18T07:49:17.622Z,12.10
2023-01-18T07:54:38.751Z,11.83
2023-01-18T08:00:00.243Z,11.90
2023-01-18T08:05:24.243Z,11.90
2023-01-18T08:10:45.957Z,12.33
2023-01-18T08:16:11.288Z,12.20
2023-01-18T08:21:33.747Z,12.17
2023-01-18T08:26:54.919Z,12.53
2023-01-18T08:32:16.636Z,11.53
2023-01-18T08:37:38.881Z,11.80
2023-01-18T08:43:02.497Z,11.47
2023-01-18T08:48:24.048Z,10.47
2023-01-18T08:53:46.778Z,10.40
2023-01-18T08:59:11.225Z,10.73
2023-01-18T09:04:34.016Z,10.67
2023-01-18T09:09:55.199Z,10.60
2023-01-18T09:15:18.275Z,10.70
2023-01-18T09:20:39.848Z,10.93
2023-01-18T09:26:06.818Z,10.23
2023-01-18T09:31:29.630Z,12.43
2023-01-18T09:36:52.296Z,11.40
2023-01-18T09:42:23.126Z,11.20
2023-01-18T09:47:47.386Z,10.77
2023-01-18T09:53:32.732Z,10.67
2023-01-18T09:59:19.403Z,10.10
2023-01-18T10:04:47.821Z,10.77
2023-01-18T10:10:19.166Z,10.03
2023-01-18T10:15:41.709Z,10.03
2023-01-18T10:21:07.121Z,10.60
2023-01-18T10:26:31.391Z,10.50
2023-01-18T10:32:03.296Z,10.27
2023-01-18T10:37:40.457Z,11.30
2023-01-18T10:43:04.502Z,9.93
2023-01-18T10:48:34.095Z,9.23
2023-01-18T10:53:56.463Z,9.73
2023-01-18T10:59:40.077Z,9.50
2023-01-18T11:05:08.208Z,9.77
2023-01-18T11:10:29.678Z,9.23
2023-01-18T11:16:05.854Z,8.90
2023-01-18T11:21:33.271Z,9.97
2023-01-18T11:26:56.687Z,7.53
2023-01-18T11:32:27.065Z,8.13
2023-01-18T11:37:49.050Z,7.63
2023-01-18T11:43:19.522Z,7.87
2023-01-18T11:49:09.947Z,9.43
2023-01-18T11:54:38.952Z,10.03
2023-01-18T12:00:00.272Z,8.57
2023-01-18T12:05:50.080Z,9.63
2023-01-18T12:11:37.262Z,8.17
2023-01-18T12:17:20.677Z,8.00
2023-01-18T12:23:19.154Z,8.77
2023-01-18T12:29:12.070Z,8.10
2023-01-18T12:34:54.645Z,8.60
2023-01-18T12:40:48.179Z,7.93
2023-01-18T12:46:27.688Z,8.50
2023-01-18T12:51:53.268Z,9.17
2023-01-18T12:57:17.167Z,8.67
2023-01-18T13:02:44.513Z,9.00
2023-01-18T13:08:30.087Z,8.40
2023-01-18T13:14:07.241Z,8.13
2023-01-18T13:20:02.355Z,7.23
2023-01-18T13:25:50.039Z,6.37
2023-01-18T13:31:12.132Z,6.40
2023-01-18T13:36:44.910Z,8.27
2023-01-18T13:42:24.497Z,8.07
2023-01-18T13:47:54.099Z,8.97
2023-01-18T13:53:15.624Z,8.13
2023-01-18T13:58:38.773Z,7.50
2023-01-18T14:04:19.448Z,8.20
2023-01-18T14:09:47.986Z,7.20
2023-01-18T14:15:29.207Z,6.43
2023-01-18T14:21:05.798Z,6.50
2023-01-18T14:26:31.037Z,6.10
2023-01-18T14:31:57.374Z,6.13
2023-01-18T14:37:28.793Z,6.27
2023-01-18T14:43:01.827Z,5.57
2023-01-18T14:48:25.085Z,5.60
2023-01-18T14:53:52.957Z,6.90
2023-01-18T14:59:22.082Z,6.73
2023-01-18T15:04:45.784Z,5.73
2023-01-18T15:10:09.061Z,6.00
2023-01-18T15:15:33.977Z,5.93
2023-01-18T15:21:02.736Z,5.40
2023-01-18T15:26:45.001Z,4.70
2023-01-18T15:32:16.546Z,4.63
2023-01-18T15:37:38.173Z,4.93
2023-01-18T15:43:28.933Z,4.80
2023-01-18T15:48:54.857Z,4.80
2023-01-18T15:54:28.628Z,4.33
2023-01-18T15:59:50.424Z,4.47
2023-01-18T16:05:22.105Z,5.00
2023-01-18T16:10:55.316Z,5.17
2023-01-18T16:16:22.548Z,5.90
2023-01-18T16:21:54.412Z,7.03
2023-01-18T16:27:19.262Z,7.57
2023-01-18T16:32:40.711Z,7.83
2023-01-18T16:38:02.504Z,8.73
2023-01-18T16:43:29.573Z,8.87
2023-01-18T16:48:51.764Z,9.07
2023-01-18T16:54:13.289Z,9.97
2023-01-18T16:59:34.820Z,10.73
2023-01-18T17:04:56.403Z,12.40
2023-01-18T17:10:36.431Z,10.70
2023-01-18T17:15:57.758Z,7.37
2023-01-18T17:21:19.259Z,6.07
2023-01-18T17:26:42.247Z,5.97
2023-01-18T17:32:03.716Z,6.80
2023-01-18T17:37:25.256Z,6.80
2023-01-18T17:42:47.114Z,6.97
2023-01-18T17:48:09.041Z,5.53
2023-01-18T17:53:30.474Z,6.33
2023-01-18T17:58:53.731Z,6.13
2023-01-18T18:04:15.291Z,6.17
2023-01-18T18:09:40.744Z,7.43
2023-01-18T18:15:03.086Z,6.50
2023-01-18T18:20:24.886Z,8.13
2023-01-18T18:25:48.903Z,9.00
2023-01-18T18:31:16.196Z,8.53
2023-01-18T18:36:37.722Z,8.67
2023-01-18T18:42:02.422Z,8.00
2023-01-18T18:47:23.927Z,8.10
2023-01-18T18:52:45.574Z,7.60
2023-01-18T18:58:07.155Z,7.33
2023-01-18T19:03:28.787Z,8.47
2023-01-18T19:08:50.928Z,9.70
2023-01-18T19:14:14.804Z,11.53
2023-01-18T19:19:36.190Z,12.80
2023-01-18T19:24:57.835Z,14.07
2023-01-18T19:30:19.431Z,12.53
2023-01-18T19:35:44.069Z,14.80
2023-01-18T19:41:05.690Z,19.03
2023-01-18T19:46:27.292Z,13.73
2023-01-18T19:51:48.949Z,13.30
2023-01-18T19:57:10.544Z,13.07
2023-01-18T20:02:32.366Z,12.13
2023-01-18T20:07:54.169Z,12.77
2023-01-18T20:13:15.564Z,12.33
2023-01-18T20:18:40.941Z,12.17
2023-01-18T20:24:02.367Z,11.97
2023-01-18T20:29:24.399Z,12.00
2023-01-18T20:34:47.280Z,12.23
2023-01-18T20:40:09.652Z,13.00
2023-01-18T20:45:31.584Z,13.13
2023-01-18T20:50:53.005Z,11.13
2023-01-18T20:56:28.363Z,12.20
2023-01-18T21:01:51.154Z,11.47
2023-01-18T21:07:12.595Z,11.23
2023-01-18T21:12:34.174Z,13.30
2023-01-18T21:17:55.604Z,14.50
2023-01-18T21:23:17.819Z,12.63
2023-01-18T21:28:39.518Z,12.27
2023-01-18T21:34:01.216Z,11.90
2023-01-18T21:39:25.573Z,12.47
2023-01-18T21:45:05.325Z,12.50
2023-01-18T21:50:45.812Z,11.97
2023-01-18T21:56:07.353Z,13.00
2023-01-18T22:01:34.580Z,12.20
2023-01-18T22:06:59.376Z,13.23
2023-01-18T22:12:20.924Z,13.03
2023-01-18T22:17:42.297Z,13.70
2023-01-18T22:23:03.882Z,14.20
2023-01-18T22:28:25.423Z,13.83
2023-01-18T22:33:48.429Z,13.03
2023-01-18T22:39:11.969Z,12.93
2023-01-18T22:44:33.354Z,13.17
2023-01-18T22:49:55.029Z,12.73
2023-01-18T22:55:16.625Z,12.77
2023-01-18T23:00:38.360Z,12.40
2023-01-18T23:06:00.914Z,12.53
2023-01-18T23:11:25.915Z,11.67
2023-01-18T23:17:07.632Z,12.47
2023-01-18T23:22:29.065Z,12.50
2023-01-18T23:27:50.588Z,12.03
2023-01-18T23:33:12.206Z,10.93
2023-01-18T23:38:52.430Z,10.63
2023-01-18T23:44:32.615Z,10.67
2023-01-18T23:50:12.769Z,10.67
2023-01-18T23:55:34.252Z,10.43
